Terminal Aerodrome Forecast
Issued by NWS

Home | Current Version | Previous Version | Text Only | Print | Product List | Glossary On
Versions: 1 2 3 4 5 6 7 8 9 10 11
000
FTUS46 KSEW 261100 RRA
TAFOLM
TAF
KOLM 261135Z 2612/2712 00000KT 5SM BR OVC004
     FM262000 20002KT P6SM OVC012
      TEMPO 2622/2702 SCT015 BKN030 OVC070
     FM270900 20003KT 1/2SM FG OVC004=

USA.gov is the U.S. government's official web portal to all federal, state and local government web resources and services.